Time;durP1;ratioP1;P1;durP2;ratioP2;P2;SDS_P1;SDS_P2;PMS_P1;PMS_P2;Temp;Humidity;BMP_temperature;BMP_pressure;BME280_temperature;BME280_humidity;BME280_pressure;Samples;Min_cycle;Max_cycle;Signal;HPM_P1;HPM_P2
2022/03/04 00:01:09;;;;;;;23.87;13.97;;;;;;;;;;4938111;28;20234;-73
2022/03/04 00:03:35;;;;;;;22.30;12.80;;;;;;;;;;4949066;28;20234;-72
2022/03/04 00:06:00;;;;;;;21.27;13.43;;;;;;;;;;4971997;28;20317;-72
2022/03/04 00:08:30;;;;;;;22.33;12.97;;;;;;;;;;4922797;28;20237;-72
2022/03/04 00:10:56;;;;;;;19.57;12.77;;;;;;;;;;4938619;28;20317;-71
2022/03/04 00:13:22;;;;;;;21.53;12.80;;;;;;;;;;4954050;28;20242;-71
2022/03/04 00:15:49;;;;;;;20.57;12.80;;;;;;;;;;4972216;28;20304;-71
2022/03/04 00:18:15;;;;;;;17.23;12.20;;;;;;;;;;4930249;28;20221;-71
2022/03/04 00:20:40;;;;;;;18.93;12.27;;;;;;;;;;4931393;28;20230;-71
2022/03/04 00:23:11;;;;;;;20.83;12.57;;;;;;;;;;4954188;28;20712;-70
2022/03/04 00:25:39;;;;;;;18.87;12.50;;;;;;;;;;4936330;28;20219;-71
2022/03/04 00:28:04;;;;;;;19.13;12.07;;;;;;;;;;4954419;28;20305;-72
2022/03/04 00:30:34;;;;;;;18.17;11.10;;;;;;;;;;4944121;28;20226;-71
2022/03/04 00:33:00;;;;;;;18.53;12.53;;;;;;;;;;4934932;28;20812;-72
2022/03/04 00:35:31;;;;;;;20.73;13.27;;;;;;;;;;4954132;28;20226;-71
2022/03/04 00:37:56;;;;;;;19.67;11.43;;;;;;;;;;4952161;28;20307;-73
2022/03/04 00:40:22;;;;;;;19.43;11.90;;;;;;;;;;4897960;28;20241;-73
2022/03/04 00:42:50;;;;;;;18.00;11.80;;;;;;;;;;4954199;28;20228;-70
2022/03/04 00:45:17;;;;;;;20.03;12.00;;;;;;;;;;4928847;28;20731;-71
2022/03/04 00:47:43;;;;;;;19.53;12.10;;;;;;;;;;4938274;28;20261;-70
2022/03/04 00:50:12;;;;;;;18.77;12.03;;;;;;;;;;4947598;28;20685;-72
2022/03/04 00:52:38;;;;;;;16.27;11.63;;;;;;;;;;4934925;28;20334;-71
2022/03/04 00:55:04;;;;;;;17.03;11.30;;;;;;;;;;4922005;28;20264;-72
2022/03/04 00:57:29;;;;;;;17.10;11.13;;;;;;;;;;4922768;28;20265;-73
2022/03/04 00:59:55;;;;;;;16.67;11.17;;;;;;;;;;4970894;28;20230;-72
2022/03/04 01:02:22;;;;;;;14.60;11.03;;;;;;;;;;4951623;28;20338;-72
2022/03/04 01:04:48;;;;;;;17.23;11.00;;;;;;;;;;4938356;28;20234;-72
2022/03/04 01:07:16;;;;;;;18.23;11.00;;;;;;;;;;4939073;28;20242;-71
2022/03/04 01:09:46;;;;;;;18.80;11.67;;;;;;;;;;4937609;28;20260;-71
2022/03/04 01:12:12;;;;;;;16.83;11.33;;;;;;;;;;4916503;28;20721;-74
2022/03/04 01:14:42;;;;;;;19.27;12.23;;;;;;;;;;4965885;28;20230;-71
2022/03/04 01:17:10;;;;;;;16.77;11.30;;;;;;;;;;4952480;28;20306;-71
2022/03/04 01:19:35;;;;;;;14.30;10.63;;;;;;;;;;4980816;28;20285;-70
2022/03/04 01:22:01;;;;;;;16.03;11.50;;;;;;;;;;4952184;28;20694;-72
2022/03/04 01:24:27;;;;;;;21.20;12.07;;;;;;;;;;4937123;28;20226;-70
2022/03/04 01:26:55;;;;;;;16.47;10.77;;;;;;;;;;4905926;28;20710;-72
2022/03/04 01:29:20;;;;;;;17.20;11.57;;;;;;;;;;4969758;28;20222;-73
2022/03/04 01:31:46;;;;;;;17.87;11.87;;;;;;;;;;4943826;28;20788;-71
2022/03/04 01:34:11;;;;;;;16.93;11.13;;;;;;;;;;4923527;28;20249;-71
2022/03/04 01:36:39;;;;;;;18.10;11.80;;;;;;;;;;4931987;28;20226;-72
2022/03/04 01:39:05;;;;;;;15.70;11.27;;;;;;;;;;4940385;28;20230;-72
2022/03/04 01:41:30;;;;;;;16.40;11.00;;;;;;;;;;4957102;28;20325;-72
2022/03/04 01:43:56;;;;;;;16.03;11.73;;;;;;;;;;4926235;28;20234;-71
2022/03/04 01:46:27;;;;;;;15.83;11.50;;;;;;;;;;4957599;28;20328;-73
2022/03/04 01:48:52;;;;;;;16.00;11.77;;;;;;;;;;4926110;28;20230;-72
2022/03/04 01:51:18;;;;;;;16.00;11.27;;;;;;;;;;4965390;28;20288;-71
2022/03/04 01:53:46;;;;;;;18.97;12.30;;;;;;;;;;4941735;28;20238;-72
2022/03/04 01:56:14;;;;;;;16.60;11.83;;;;;;;;;;4940164;28;20301;-71
2022/03/04 01:58:40;;;;;;;18.20;12.03;;;;;;;;;;4968009;28;20237;-71
2022/03/04 02:01:09;;;;;;;17.27;11.93;;;;;;;;;;4967310;28;20253;-72
2022/03/04 02:03:35;;;;;;;17.50;12.63;;;;;;;;;;4957306;28;20226;-72
2022/03/04 02:06:00;;;;;;;19.83;13.17;;;;;;;;;;4947974;28;20246;-70
2022/03/04 02:08:25;;;;;;;18.33;12.90;;;;;;;;;;4937656;28;20214;-71
2022/03/04 02:10:54;;;;;;;17.73;12.70;;;;;;;;;;4934215;28;20222;-70
2022/03/04 02:13:27;;;;;;;22.97;14.13;;;;;;;;;;4951585;28;20361;-71
2022/03/04 02:15:52;;;;;;;20.27;13.17;;;;;;;;;;4957611;28;20226;-71
2022/03/04 02:18:18;;;;;;;19.07;13.43;;;;;;;;;;4951709;28;20767;-74
2022/03/04 02:20:48;;;;;;;21.50;14.77;;;;;;;;;;4923947;28;20234;-71
2022/03/04 02:23:14;;;;;;;22.47;14.50;;;;;;;;;;4945171;28;20640;-72
2022/03/04 02:25:47;;;;;;;21.83;13.70;;;;;;;;;;4982483;28;20240;-73
2022/03/04 02:28:15;;;;;;;23.20;14.73;;;;;;;;;;4941388;28;20232;-71
2022/03/04 02:30:43;;;;;;;21.80;14.87;;;;;;;;;;4940876;28;20620;-71
2022/03/04 02:33:08;;;;;;;23.43;15.33;;;;;;;;;;4973251;28;20723;-71
2022/03/04 02:35:37;;;;;;;22.93;15.07;;;;;;;;;;4944086;28;20218;-70
2022/03/04 02:38:02;;;;;;;23.73;15.40;;;;;;;;;;4955835;28;20272;-72
2022/03/04 02:40:30;;;;;;;22.03;15.03;;;;;;;;;;4942571;28;20910;-70
2022/03/04 02:42:58;;;;;;;21.70;14.20;;;;;;;;;;4951305;28;20230;-72
2022/03/04 02:45:24;;;;;;;24.20;15.53;;;;;;;;;;4934658;28;20229;-71
2022/03/04 02:47:52;;;;;;;20.77;15.20;;;;;;;;;;4966554;28;20227;-71
2022/03/04 02:50:20;;;;;;;25.60;16.87;;;;;;;;;;4932736;28;20676;-71
2022/03/04 02:52:48;;;;;;;26.63;16.60;;;;;;;;;;4955907;28;20233;-70
2022/03/04 02:55:16;;;;;;;25.77;16.73;;;;;;;;;;4951897;28;20300;-71
2022/03/04 02:57:43;;;;;;;24.73;16.37;;;;;;;;;;4966323;28;20225;-73
2022/03/04 03:00:10;;;;;;;27.47;16.23;;;;;;;;;;4940112;28;20234;-72
2022/03/04 03:02:35;;;;;;;23.60;16.47;;;;;;;;;;4955419;28;20222;-69
2022/03/04 03:05:01;;;;;;;27.50;16.73;;;;;;;;;;4940516;28;20238;-70
2022/03/04 03:07:27;;;;;;;25.47;16.20;;;;;;;;;;4956205;28;20957;-70
2022/03/04 03:09:53;;;;;;;26.60;16.97;;;;;;;;;;4952408;28;20250;-70
2022/03/04 03:12:21;;;;;;;24.07;15.53;;;;;;;;;;4936559;28;20301;-70
2022/03/04 03:14:56;;;;;;;27.53;16.77;;;;;;;;;;4956337;28;20731;-70
2022/03/04 03:17:27;;;;;;;24.70;15.87;;;;;;;;;;4964487;28;20298;-70
2022/03/04 03:19:54;;;;;;;23.73;15.17;;;;;;;;;;4943369;28;20231;-71
2022/03/04 03:22:20;;;;;;;24.73;14.77;;;;;;;;;;4948617;28;20233;-71
2022/03/04 03:24:46;;;;;;;21.83;15.60;;;;;;;;;;4944752;28;20230;-71
2022/03/04 03:27:11;;;;;;;23.17;15.50;;;;;;;;;;4942954;28;20230;-71
2022/03/04 03:29:39;;;;;;;20.27;14.73;;;;;;;;;;4948840;28;20752;-71
2022/03/04 03:32:07;;;;;;;22.13;14.83;;;;;;;;;;4953754;28;20309;-71
2022/03/04 03:34:33;;;;;;;28.63;15.57;;;;;;;;;;4936799;28;20724;-71
2022/03/04 03:37:03;;;;;;;21.23;14.37;;;;;;;;;;4939171;28;20219;-71
2022/03/04 03:39:30;;;;;;;20.10;14.13;;;;;;;;;;4939132;28;20337;-70
2022/03/04 03:41:58;;;;;;;22.50;15.07;;;;;;;;;;4954591;28;20281;-72
2022/03/04 03:44:29;;;;;;;19.33;14.87;;;;;;;;;;4930078;28;20217;-71
2022/03/04 03:46:55;;;;;;;21.57;15.47;;;;;;;;;;4924193;28;20270;-71
2022/03/04 03:49:25;;;;;;;23.73;15.00;;;;;;;;;;4954941;28;20226;-72
2022/03/04 03:51:53;;;;;;;20.17;14.17;;;;;;;;;;4953509;28;20252;-71
2022/03/04 03:54:21;;;;;;;21.57;14.90;;;;;;;;;;4938422;28;20317;-73
2022/03/04 03:56:46;;;;;;;21.80;14.77;;;;;;;;;;4938319;28;20226;-72
2022/03/04 03:59:16;;;;;;;24.57;15.27;;;;;;;;;;4936834;28;20689;-73
2022/03/04 04:01:44;;;;;;;22.90;14.37;;;;;;;;;;4972832;28;20253;-72
2022/03/04 04:04:12;;;;;;;22.73;14.60;;;;;;;;;;4971636;28;20787;-72
2022/03/04 04:06:40;;;;;;;21.97;14.93;;;;;;;;;;4953507;28;20230;-73
2022/03/04 04:09:06;;;;;;;22.60;14.93;;;;;;;;;;4952857;28;20229;-73
2022/03/04 04:11:35;;;;;;;21.50;15.07;;;;;;;;;;4954343;28;20257;-72
2022/03/04 04:14:08;;;;;;;26.37;15.50;;;;;;;;;;4938875;28;20313;-72
2022/03/04 04:16:36;;;;;;;20.60;14.47;;;;;;;;;;4959906;28;20229;-72
2022/03/04 04:19:04;;;;;;;22.83;15.60;;;;;;;;;;4971362;28;20222;-73
2022/03/04 04:21:39;;;;;;;23.20;14.60;;;;;;;;;;4933267;28;20293;-74
2022/03/04 04:24:05;;;;;;;21.53;13.43;;;;;;;;;;4971445;28;20222;-70
2022/03/04 04:26:31;;;;;;;24.33;15.83;;;;;;;;;;4954346;28;20660;-71
2022/03/04 04:28:59;;;;;;;27.17;16.10;;;;;;;;;;4923248;28;20233;-72
2022/03/04 04:31:27;;;;;;;23.03;16.03;;;;;;;;;;4965269;28;20233;-70
2022/03/04 04:33:53;;;;;;;24.67;15.50;;;;;;;;;;4929283;28;20785;-72
2022/03/04 04:36:23;;;;;;;26.87;15.93;;;;;;;;;;4929956;28;20230;-71
2022/03/04 04:38:49;;;;;;;25.17;16.13;;;;;;;;;;4955018;28;20736;-71
2022/03/04 04:41:21;;;;;;;24.00;15.73;;;;;;;;;;4925091;28;20324;-71
2022/03/04 04:43:49;;;;;;;26.10;16.50;;;;;;;;;;4978499;28;20249;-73
2022/03/04 04:46:15;;;;;;;25.10;15.87;;;;;;;;;;4984864;28;20248;-71
2022/03/04 04:48:40;;;;;;;28.30;16.03;;;;;;;;;;4957440;28;20305;-72
2022/03/04 04:51:06;;;;;;;24.30;15.43;;;;;;;;;;4938163;28;20762;-73
2022/03/04 04:53:32;;;;;;;26.13;16.50;;;;;;;;;;4936543;28;20702;-70
2022/03/04 04:55:59;;;;;;;26.40;16.47;;;;;;;;;;4954345;28;20214;-71
2022/03/04 04:58:25;;;;;;;25.87;16.33;;;;;;;;;;4937343;28;20292;-71
2022/03/04 05:00:53;;;;;;;23.97;16.53;;;;;;;;;;4961515;28;20238;-71
2022/03/04 05:03:23;;;;;;;25.77;15.90;;;;;;;;;;4965909;28;20272;-71
2022/03/04 05:05:50;;;;;;;27.90;16.50;;;;;;;;;;4941812;28;20273;-71
2022/03/04 05:08:20;;;;;;;27.73;15.80;;;;;;;;;;4941625;28;20218;-71
2022/03/04 05:10:45;;;;;;;25.10;15.63;;;;;;;;;;4941623;28;20746;-72
2022/03/04 05:13:11;;;;;;;24.50;15.43;;;;;;;;;;4957022;28;20301;-72
2022/03/04 05:15:37;;;;;;;26.67;15.60;;;;;;;;;;4926381;28;20222;-71
2022/03/04 05:18:05;;;;;;;24.27;15.77;;;;;;;;;;4940763;28;20235;-71
2022/03/04 05:20:33;;;;;;;25.17;16.67;;;;;;;;;;4955927;28;20234;-71
2022/03/04 05:23:00;;;;;;;26.00;16.23;;;;;;;;;;4942302;28;20780;-71
2022/03/04 05:25:29;;;;;;;25.63;14.83;;;;;;;;;;4938647;28;20245;-72
2022/03/04 05:27:57;;;;;;;24.33;15.67;;;;;;;;;;4958252;28;20228;-71
2022/03/04 05:30:24;;;;;;;25.37;14.77;;;;;;;;;;4973399;28;20329;-71
2022/03/04 05:32:50;;;;;;;23.83;15.83;;;;;;;;;;4957756;28;20221;-72
2022/03/04 05:35:18;;;;;;;27.07;16.53;;;;;;;;;;4954889;28;20329;-71
2022/03/04 05:37:48;;;;;;;27.40;16.27;;;;;;;;;;4941615;28;20234;-71
2022/03/04 05:40:13;;;;;;;26.83;16.07;;;;;;;;;;4941140;28;20241;-70
2022/03/04 05:42:44;;;;;;;27.67;16.23;;;;;;;;;;4932058;28;20215;-71
2022/03/04 05:45:12;;;;;;;26.40;16.60;;;;;;;;;;4955976;28;20227;-72
2022/03/04 05:47:39;;;;;;;25.83;16.63;;;;;;;;;;4954239;28;20230;-72
2022/03/04 05:50:08;;;;;;;26.40;16.17;;;;;;;;;;4973024;28;20218;-72
2022/03/04 05:52:34;;;;;;;25.87;16.57;;;;;;;;;;4940066;28;20226;-70
2022/03/04 05:55:02;;;;;;;26.23;15.93;;;;;;;;;;4941689;28;20233;-72
2022/03/04 05:57:29;;;;;;;25.83;16.10;;;;;;;;;;4949557;28;20261;-72
2022/03/04 05:59:55;;;;;;;26.47;17.10;;;;;;;;;;4972988;28;20226;-72
2022/03/04 06:02:21;;;;;;;25.57;15.17;;;;;;;;;;4965515;28;20233;-71
2022/03/04 06:04:49;;;;;;;33.63;19.93;;;;;;;;;;4941853;28;20231;-71
2022/03/04 06:07:14;;;;;;;29.03;20.17;;;;;;;;;;4940640;28;20646;-73
2022/03/04 06:09:42;;;;;;;26.27;15.77;;;;;;;;;;4932812;28;20308;-71
2022/03/04 06:12:07;;;;;;;26.77;16.17;;;;;;;;;;4973704;28;20233;-72
2022/03/04 06:14:33;;;;;;;22.53;14.00;;;;;;;;;;4952567;28;20229;-73
2022/03/04 06:16:58;;;;;;;24.63;14.73;;;;;;;;;;4959898;28;20233;-72
2022/03/04 06:19:27;;;;;;;21.17;13.83;;;;;;;;;;4958227;28;20236;-73
2022/03/04 06:21:52;;;;;;;20.50;13.10;;;;;;;;;;4963437;28;20288;-71
2022/03/04 06:24:18;;;;;;;21.10;13.27;;;;;;;;;;4973895;28;20230;-71
2022/03/04 06:26:43;;;;;;;25.10;13.93;;;;;;;;;;4935560;28;20232;-72
2022/03/04 06:29:09;;;;;;;18.67;12.70;;;;;;;;;;4961854;28;20230;-72
2022/03/04 06:31:34;;;;;;;21.13;13.33;;;;;;;;;;4968201;28;20233;-71
2022/03/04 06:34:02;;;;;;;23.77;14.77;;;;;;;;;;4944805;28;20223;-73
2022/03/04 06:36:30;;;;;;;20.00;13.20;;;;;;;;;;4912186;28;20226;-72
2022/03/04 06:38:55;;;;;;;21.57;13.53;;;;;;;;;;4955632;28;20380;-71
2022/03/04 06:41:23;;;;;;;21.77;13.13;;;;;;;;;;4964376;28;20298;-71
2022/03/04 06:43:51;;;;;;;20.43;12.53;;;;;;;;;;4957514;28;20249;-73
2022/03/04 06:46:16;;;;;;;19.97;12.87;;;;;;;;;;4970654;28;20693;-72
2022/03/04 06:48:42;;;;;;;21.90;12.03;;;;;;;;;;4972017;28;20241;-72
2022/03/04 06:51:07;;;;;;;19.13;11.87;;;;;;;;;;4948427;28;20222;-74
2022/03/04 06:53:33;;;;;;;20.50;12.07;;;;;;;;;;4952822;28;20340;-72
2022/03/04 06:56:01;;;;;;;18.83;11.37;;;;;;;;;;4970815;28;20230;-73
2022/03/04 06:58:26;;;;;;;16.63;10.93;;;;;;;;;;4942452;28;20305;-72
2022/03/04 07:01:05;;;;;;;17.53;10.47;;;;;;;;;;4946416;28;20719;-72
2022/03/04 07:03:30;;;;;;;17.03;10.57;;;;;;;;;;4940938;28;20631;-73
2022/03/04 07:05:56;;;;;;;18.43;11.43;;;;;;;;;;4975570;28;20234;-73
2022/03/04 07:08:24;;;;;;;15.50;10.97;;;;;;;;;;4943123;28;20246;-71
2022/03/04 07:10:54;;;;;;;16.23;10.80;;;;;;;;;;4944098;28;20567;-72
2022/03/04 07:13:21;;;;;;;15.80;10.67;;;;;;;;;;4953268;28;20234;-72
2022/03/04 07:15:51;;;;;;;14.83;10.73;;;;;;;;;;4964630;28;20230;-72
2022/03/04 07:18:23;;;;;;;13.73;9.27;;;;;;;;;;4942322;28;20218;-71
2022/03/04 07:20:51;;;;;;;16.90;10.13;;;;;;;;;;4959085;28;20379;-72
2022/03/04 07:23:17;;;;;;;15.23;9.80;;;;;;;;;;4972157;28;20221;-71
2022/03/04 07:25:43;;;;;;;15.70;10.20;;;;;;;;;;4953043;28;20611;-70
2022/03/04 07:28:08;;;;;;;17.10;10.43;;;;;;;;;;4939686;28;20226;-71
2022/03/04 07:30:35;;;;;;;15.57;10.47;;;;;;;;;;4974162;28;20214;-72
2022/03/04 07:33:02;;;;;;;13.70;10.17;;;;;;;;;;4949127;28;20261;-71
2022/03/04 07:35:27;;;;;;;16.43;10.67;;;;;;;;;;4954868;28;20277;-71
2022/03/04 07:37:54;;;;;;;16.07;10.40;;;;;;;;;;4938389;28;20290;-70
2022/03/04 07:40:22;;;;;;;17.03;9.93;;;;;;;;;;4956448;28;20241;-72
2022/03/04 07:43:04;;;;;;;16.97;10.87;;;;;;;;;;4940001;28;20222;-71
2022/03/04 07:45:30;;;;;;;14.00;10.23;;;;;;;;;;4950982;28;20261;-71
2022/03/04 07:47:56;;;;;;;13.37;9.77;;;;;;;;;;4955361;28;20304;-72
2022/03/04 07:50:23;;;;;;;19.50;12.03;;;;;;;;;;4955019;28;21804;-71
2022/03/04 07:52:53;;;;;;;13.37;8.93;;;;;;;;;;4939461;28;20234;-72
2022/03/04 07:55:20;;;;;;;13.27;9.37;;;;;;;;;;4937413;28;20248;-71
2022/03/04 07:57:47;;;;;;;12.60;8.40;;;;;;;;;;4943771;28;20731;-71
2022/03/04 08:00:17;;;;;;;12.17;8.53;;;;;;;;;;4939044;28;20459;-72
2022/03/04 08:02:47;;;;;;;10.17;7.53;;;;;;;;;;4963549;28;20253;-72
2022/03/04 08:05:16;;;;;;;11.23;8.73;;;;;;;;;;4947457;28;20227;-72
2022/03/04 08:07:44;;;;;;;13.00;9.57;;;;;;;;;;4972454;28;20285;-73
2022/03/04 08:10:09;;;;;;;11.23;9.27;;;;;;;;;;4972418;28;20606;-71
2022/03/04 08:12:42;;;;;;;11.53;8.07;;;;;;;;;;4957649;28;20240;-73
2022/03/04 08:15:35;;;;;;;11.63;8.67;;;;;;;;;;4982409;28;20717;-74
2022/03/04 08:18:03;;;;;;;10.43;7.87;;;;;;;;;;4956354;28;20311;-73
2022/03/04 08:20:32;;;;;;;12.77;8.57;;;;;;;;;;4939857;28;20314;-72
2022/03/04 08:23:00;;;;;;;10.60;8.07;;;;;;;;;;4958557;28;20272;-72
2022/03/04 08:25:26;;;;;;;11.60;8.90;;;;;;;;;;4954434;28;20709;-72
2022/03/04 08:27:52;;;;;;;10.77;8.57;;;;;;;;;;4939277;28;20325;-72
2022/03/04 08:30:20;;;;;;;12.33;8.83;;;;;;;;;;4972021;28;20349;-72
2022/03/04 08:32:48;;;;;;;12.27;8.33;;;;;;;;;;4923879;28;20230;-71
2022/03/04 08:35:14;;;;;;;11.27;8.57;;;;;;;;;;4939048;28;20234;-77
2022/03/04 08:37:39;;;;;;;12.30;8.93;;;;;;;;;;4963012;28;20653;-72
2022/03/04 08:40:08;;;;;;;13.20;9.50;;;;;;;;;;4982772;28;20245;-72
2022/03/04 08:42:41;;;;;;;11.90;8.93;;;;;;;;;;4944109;28;20237;-73
2022/03/04 08:45:07;;;;;;;11.63;8.67;;;;;;;;;;4939723;28;20233;-72
2022/03/04 08:47:32;;;;;;;10.83;9.03;;;;;;;;;;4912271;28;20233;-72
2022/03/04 08:49:58;;;;;;;14.73;8.70;;;;;;;;;;4943508;28;20285;-72
2022/03/04 08:52:26;;;;;;;11.90;9.03;;;;;;;;;;4984931;28;20245;-71
2022/03/04 08:54:51;;;;;;;11.33;9.20;;;;;;;;;;4943054;28;20234;-72
2022/03/04 08:57:17;;;;;;;12.20;9.23;;;;;;;;;;4966826;28;20305;-72
2022/03/04 08:59:45;;;;;;;12.20;8.57;;;;;;;;;;4942412;28;20693;-71
2022/03/04 09:02:10;;;;;;;11.83;9.53;;;;;;;;;;4941338;28;20246;-72
2022/03/04 09:04:38;;;;;;;10.77;8.47;;;;;;;;;;4933667;28;20605;-72
2022/03/04 09:07:07;;;;;;;9.13;7.60;;;;;;;;;;4943047;28;20361;-72
2022/03/04 09:09:38;;;;;;;8.57;7.07;;;;;;;;;;4955790;28;20226;-70
2022/03/04 09:12:07;;;;;;;10.60;7.83;;;;;;;;;;4938303;28;20215;-71
2022/03/04 09:14:32;;;;;;;9.13;7.17;;;;;;;;;;4955798;28;20251;-70
2022/03/04 09:16:58;;;;;;;9.47;7.07;;;;;;;;;;4951075;28;20230;-70
2022/03/04 09:19:23;;;;;;;9.07;7.03;;;;;;;;;;4957486;28;20601;-69
2022/03/04 09:21:49;;;;;;;9.13;8.23;;;;;;;;;;4973508;28;20305;-70
2022/03/04 09:24:14;;;;;;;9.80;7.07;;;;;;;;;;4956780;28;20242;-70
2022/03/04 09:26:42;;;;;;;8.13;7.10;;;;;;;;;;4948882;28;20698;-71
2022/03/04 09:29:08;;;;;;;8.57;7.03;;;;;;;;;;4939167;28;20225;-68
2022/03/04 09:31:36;;;;;;;9.47;7.37;;;;;;;;;;4936414;28;20300;-69
2022/03/04 09:34:02;;;;;;;9.73;7.47;;;;;;;;;;4960618;28;20225;-69
2022/03/04 09:36:27;;;;;;;9.73;7.53;;;;;;;;;;4940728;28;20234;-69
2022/03/04 09:38:57;;;;;;;10.50;7.93;;;;;;;;;;4948242;28;20230;-70
2022/03/04 09:41:25;;;;;;;10.50;8.53;;;;;;;;;;4973051;28;20294;-71
2022/03/04 09:43:53;;;;;;;9.20;7.70;;;;;;;;;;4957743;28;20226;-69
2022/03/04 09:46:22;;;;;;;9.90;7.70;;;;;;;;;;4953893;28;20230;-70
2022/03/04 09:48:50;;;;;;;9.53;7.80;;;;;;;;;;4923554;28;20230;-70
2022/03/04 09:51:20;;;;;;;10.13;7.93;;;;;;;;;;4933488;28;20214;-70
2022/03/04 09:53:46;;;;;;;8.77;7.20;;;;;;;;;;4940402;28;20240;-70
2022/03/04 09:56:12;;;;;;;9.10;7.53;;;;;;;;;;4935076;28;20719;-70
2022/03/04 09:58:38;;;;;;;9.03;7.80;;;;;;;;;;4953067;28;20245;-72
2022/03/04 10:01:10;;;;;;;9.70;7.60;;;;;;;;;;4954821;28;20235;-69
2022/03/04 10:03:39;;;;;;;10.73;8.60;;;;;;;;;;4956512;28;20375;-70
2022/03/04 10:06:05;;;;;;;11.53;7.43;;;;;;;;;;4971527;28;20218;-70
2022/03/04 10:08:39;;;;;;;9.63;7.47;;;;;;;;;;4940962;28;20716;-69
2022/03/04 10:11:05;;;;;;;8.17;6.70;;;;;;;;;;4939489;28;20354;-70
2022/03/04 10:13:43;;;;;;;8.90;7.43;;;;;;;;;;4939337;28;20309;-68
2022/03/04 10:16:21;;;;;;;9.07;7.30;;;;;;;;;;4972979;28;20241;-70
2022/03/04 10:19:07;;;;;;;8.10;6.80;;;;;;;;;;4923693;28;20296;-69
2022/03/04 10:21:58;;;;;;;8.73;7.03;;;;;;;;;;4940736;28;20226;-70
2022/03/04 10:24:35;;;;;;;8.83;7.57;;;;;;;;;;4939312;28;20720;-71
2022/03/04 10:27:03;;;;;;;10.03;7.60;;;;;;;;;;4973986;28;20233;-70
2022/03/04 10:29:32;;;;;;;9.27;7.33;;;;;;;;;;4962842;28;20230;-71
2022/03/04 10:32:07;;;;;;;8.67;7.03;;;;;;;;;;4955258;28;20222;-69
2022/03/04 10:35:11;;;;;;;8.30;7.27;;;;;;;;;;4956620;28;20300;-69
2022/03/04 10:37:51;;;;;;;8.50;7.07;;;;;;;;;;4929486;28;20226;-71
2022/03/04 10:40:20;;;;;;;6.67;6.00;;;;;;;;;;4955165;28;20226;-69
2022/03/04 10:42:52;;;;;;;7.43;6.07;;;;;;;;;;4934677;28;20317;-72
2022/03/04 10:45:23;;;;;;;7.70;5.80;;;;;;;;;;4951106;28;20230;-69
2022/03/04 10:47:51;;;;;;;6.73;5.80;;;;;;;;;;4972638;28;20704;-69
2022/03/04 10:50:27;;;;;;;6.93;6.23;;;;;;;;;;4971910;28;20214;-70
2022/03/04 10:53:03;;;;;;;7.93;6.30;;;;;;;;;;4954855;28;20244;-70
2022/03/04 10:55:45;;;;;;;9.77;6.40;;;;;;;;;;4937865;28;20590;-70
2022/03/04 10:58:14;;;;;;;8.13;6.17;;;;;;;;;;4954097;28;20578;-68
2022/03/04 11:00:40;;;;;;;9.90;5.73;;;;;;;;;;4957163;28;20281;-69
2022/03/04 11:03:06;;;;;;;8.37;6.57;;;;;;;;;;4941019;28;20226;-69
2022/03/04 11:05:32;;;;;;;7.67;6.37;;;;;;;;;;4955779;28;20230;-68
2022/03/04 11:08:01;;;;;;;8.10;6.07;;;;;;;;;;4948147;28;20698;-68
2022/03/04 11:10:26;;;;;;;8.47;6.17;;;;;;;;;;4949517;28;20237;-69
2022/03/04 11:12:56;;;;;;;6.77;5.87;;;;;;;;;;4956903;28;20313;-71
2022/03/04 11:15:25;;;;;;;6.70;6.10;;;;;;;;;;4959779;28;20242;-68
2022/03/04 11:17:53;;;;;;;7.97;5.77;;;;;;;;;;4964974;28;20697;-71
2022/03/04 11:20:18;;;;;;;7.80;5.77;;;;;;;;;;4921688;28;20238;-69
2022/03/04 11:22:45;;;;;;;7.03;5.77;;;;;;;;;;4960183;28;20295;-68
2022/03/04 11:25:15;;;;;;;6.27;5.30;;;;;;;;;;4956102;28;20233;-69
2022/03/04 11:27:47;;;;;;;4.77;4.27;;;;;;;;;;4932291;28;20226;-70
2022/03/04 11:30:34;;;;;;;5.83;4.17;;;;;;;;;;4955012;28;20281;-70
2022/03/04 11:33:03;;;;;;;5.30;4.80;;;;;;;;;;4972571;28;20226;-70
2022/03/04 11:35:56;;;;;;;4.50;3.73;;;;;;;;;;4960668;28;20242;-70
2022/03/04 11:38:46;;;;;;;4.70;4.10;;;;;;;;;;4941795;28;20210;-71
2022/03/04 11:41:35;;;;;;;4.50;3.67;;;;;;;;;;4968900;28;20234;-70
2022/03/04 11:44:25;;;;;;;4.63;3.90;;;;;;;;;;4938667;28;20280;-69
2022/03/04 11:47:00;;;;;;;4.53;3.50;;;;;;;;;;4975944;28;20222;-68
2022/03/04 11:49:32;;;;;;;4.43;3.83;;;;;;;;;;4971789;28;20225;-69
2022/03/04 11:52:10;;;;;;;4.10;3.70;;;;;;;;;;4971927;28;20273;-70
2022/03/04 11:54:40;;;;;;;4.07;3.50;;;;;;;;;;4952803;28;20703;-69
2022/03/04 11:57:19;;;;;;;3.80;3.07;;;;;;;;;;4937718;28;20718;-69
2022/03/04 11:59:50;;;;;;;3.60;3.30;;;;;;;;;;4937016;28;20214;-71
2022/03/04 12:02:36;;;;;;;4.20;3.30;;;;;;;;;;4953922;28;20226;-69
2022/03/04 12:05:13;;;;;;;4.93;3.60;;;;;;;;;;4971638;28;20225;-69
2022/03/04 12:07:41;;;;;;;5.57;3.63;;;;;;;;;;4970773;28;20230;-69
2022/03/04 12:10:09;;;;;;;5.10;3.63;;;;;;;;;;4970561;28;20842;-70
2022/03/04 12:12:34;;;;;;;4.33;3.30;;;;;;;;;;4953575;28;20229;-71
2022/03/04 12:15:19;;;;;;;4.60;3.53;;;;;;;;;;4939720;28;20325;-70
2022/03/04 12:18:02;;;;;;;4.30;3.50;;;;;;;;;;4954912;28;20372;-69
2022/03/04 12:20:39;;;;;;;4.10;3.43;;;;;;;;;;4955266;28;20272;-72
2022/03/04 12:23:13;;;;;;;4.20;3.20;;;;;;;;;;4971525;28;20218;-67
2022/03/04 12:28:28;;;;;;;5.07;3.07;;;;;;;;;;4951049;28;20226;-69
2022/03/04 12:31:02;;;;;;;3.80;3.40;;;;;;;;;;4950447;28;20248;-68
2022/03/04 12:33:33;;;;;;;7.00;3.27;;;;;;;;;;4945316;28;20234;-71
2022/03/04 12:35:59;;;;;;;3.33;2.93;;;;;;;;;;4953988;28;20253;-69
2022/03/04 12:38:28;;;;;;;4.20;3.20;;;;;;;;;;4930215;28;20222;-70
2022/03/04 12:40:59;;;;;;;3.77;2.90;;;;;;;;;;4942865;28;20729;-69
2022/03/04 12:43:25;;;;;;;3.40;3.10;;;;;;;;;;4926197;28;20222;-70
2022/03/04 12:45:54;;;;;;;3.53;3.07;;;;;;;;;;4922635;28;20264;-70
2022/03/04 12:48:20;;;;;;;3.57;2.90;;;;;;;;;;4971088;28;20225;-69
2022/03/04 12:50:45;;;;;;;3.30;2.93;;;;;;;;;;4938485;28;20305;-67
2022/03/04 12:53:28;;;;;;;3.90;3.03;;;;;;;;;;4962725;28;20297;-69
2022/03/04 12:55:56;;;;;;;3.03;2.70;;;;;;;;;;4946762;28;20268;-69
2022/03/04 12:58:40;;;;;;;3.60;3.00;;;;;;;;;;4954354;28;20230;-70
2022/03/04 13:01:12;;;;;;;3.40;2.97;;;;;;;;;;4961751;28;20242;-72
2022/03/04 13:03:51;;;;;;;5.40;2.70;;;;;;;;;;4953857;28;20230;-70
2022/03/04 13:06:17;;;;;;;3.43;2.70;;;;;;;;;;4919792;28;20632;-69
2022/03/04 13:08:51;;;;;;;4.50;3.07;;;;;;;;;;4957822;28;20787;-67
2022/03/04 13:11:25;;;;;;;3.23;2.93;;;;;;;;;;4970232;28;20225;-70
2022/03/04 13:14:02;;;;;;;3.80;3.07;;;;;;;;;;4951142;28;20233;-70
2022/03/04 13:16:47;;;;;;;3.83;3.10;;;;;;;;;;4928491;28;20336;-68
2022/03/04 13:19:17;;;;;;;3.37;2.80;;;;;;;;;;4969820;28;20206;-69
2022/03/04 13:21:42;;;;;;;3.50;2.83;;;;;;;;;;4970628;28;20253;-70
2022/03/04 13:24:11;;;;;;;5.43;3.03;;;;;;;;;;4967758;28;20840;-69
2022/03/04 13:26:48;;;;;;;3.80;2.97;;;;;;;;;;4958724;28;20240;-70
2022/03/04 13:29:14;;;;;;;3.40;3.10;;;;;;;;;;4974552;28;20244;-69
2022/03/04 13:31:40;;;;;;;5.37;3.00;;;;;;;;;;4941918;28;20222;-70
2022/03/04 13:34:08;;;;;;;3.10;2.73;;;;;;;;;;4946741;28;20286;-69
2022/03/04 13:36:47;;;;;;;2.87;2.60;;;;;;;;;;4968059;28;20233;-69
2022/03/04 13:39:24;;;;;;;3.13;2.83;;;;;;;;;;4950193;28;20225;-68
2022/03/04 13:42:11;;;;;;;3.90;3.30;;;;;;;;;;4955622;28;20365;-70
2022/03/04 13:44:50;;;;;;;2.90;2.60;;;;;;;;;;4953493;28;20233;-70
2022/03/04 13:47:30;;;;;;;3.43;2.30;;;;;;;;;;4974221;28;20297;-70
2022/03/04 13:49:56;;;;;;;3.90;2.30;;;;;;;;;;4952683;28;20712;-70
2022/03/04 13:52:25;;;;;;;2.53;2.20;;;;;;;;;;4940576;28;21745;-70
2022/03/04 13:55:01;;;;;;;2.87;2.23;;;;;;;;;;4957362;28;20253;-71
2022/03/04 13:57:36;;;;;;;3.47;2.37;;;;;;;;;;4937540;28;20718;-68
2022/03/04 14:00:13;;;;;;;3.17;2.07;;;;;;;;;;4940854;28;20226;-70
2022/03/04 14:02:46;;;;;;;2.83;2.03;;;;;;;;;;4976117;28;20230;-69
2022/03/04 14:05:26;;;;;;;1.93;1.70;;;;;;;;;;4985617;28;20234;-71
2022/03/04 14:08:02;;;;;;;2.20;1.83;;;;;;;;;;4984228;28;20248;-71
2022/03/04 14:10:31;;;;;;;3.60;2.23;;;;;;;;;;4942891;28;20210;-68
2022/03/04 14:12:56;;;;;;;3.43;1.97;;;;;;;;;;4983743;28;20338;-70
2022/03/04 14:15:22;;;;;;;2.43;2.00;;;;;;;;;;4966776;28;20351;-71
2022/03/04 14:18:13;;;;;;;4.00;2.03;;;;;;;;;;4940345;28;20675;-69
2022/03/04 14:20:40;;;;;;;2.47;1.67;;;;;;;;;;4973203;28;20245;-70
2022/03/04 14:23:10;;;;;;;3.87;2.23;;;;;;;;;;4948427;28;20222;-72
2022/03/04 14:25:35;;;;;;;3.13;1.80;;;;;;;;;;4939957;28;20242;-70
2022/03/04 14:28:02;;;;;;;3.17;1.87;;;;;;;;;;4941178;28;20234;-69
2022/03/04 14:30:34;;;;;;;3.50;2.17;;;;;;;;;;4956899;28;20241;-71
2022/03/04 14:33:01;;;;;;;3.50;2.00;;;;;;;;;;4951887;28;20273;-70
2022/03/04 14:35:28;;;;;;;2.67;2.10;;;;;;;;;;4928267;28;20292;-72
2022/03/04 14:37:53;;;;;;;4.43;2.10;;;;;;;;;;4973419;28;20229;-71
2022/03/04 14:40:21;;;;;;;4.17;2.23;;;;;;;;;;4976077;28;20305;-70
2022/03/04 14:42:51;;;;;;;4.03;2.20;;;;;;;;;;4955570;28;20297;-72